Terminal Aerodrome Forecast
Issued by NWS

Current Version | Previous Version | Graphics & Text | Print | Product List | Glossary On
Versions: 1 2 3 4 5 6 7 8 9 10 11 12 13 14 15 16 17 18 19 20
000
FTUS41 KRNK 261840 AAA
TAFLWB
TAF AMD
KLWB 261840Z 2619/2718 24005KT P6SM -SHRA VCTS OVC040CB
      TEMPO 2620/2624 3SM TSRA OVC020CB
     FM270100 00000KT P6SM -SHRA SCT015 OVC070
     FM270600 00000KT 1 1/2SM BR OVC015
     FM270900 00000KT 1 1/2SM BR OVC004
     FM271500 21002KT P6SM OVC025=

USA.gov is the U.S. government's official web portal to all federal, state and local government web resources and services.